createdAt,value
2023-02-09T00:01:30.042Z,12.93
2023-02-09T00:03:58.083Z,9.10
2023-02-09T00:06:26.199Z,14.85
2023-02-09T00:08:53.887Z,8.73
2023-02-09T00:11:46.258Z,9.77
2023-02-09T00:14:15.781Z,11.48
2023-02-09T00:16:43.253Z,14.75
2023-02-09T00:19:11.278Z,11.40
2023-02-09T00:21:38.656Z,13.25
2023-02-09T00:24:05.904Z,9.80
2023-02-09T00:26:33.217Z,11.57
2023-02-09T00:29:00.271Z,10.82
2023-02-09T00:31:27.122Z,8.27
2023-02-09T00:33:54.001Z,13.02
2023-02-09T00:36:22.604Z,10.35
2023-02-09T00:38:52.611Z,7.55
2023-02-09T00:41:39.947Z,10.52
2023-02-09T00:44:06.681Z,10.93
2023-02-09T00:46:33.755Z,9.25
2023-02-09T00:49:03.886Z,9.23
2023-02-09T00:51:30.979Z,8.50
2023-02-09T00:53:58.757Z,7.97
2023-02-09T00:56:25.534Z,9.52
2023-02-09T00:58:52.278Z,17.35
2023-02-09T01:01:19.272Z,11.23
2023-02-09T01:03:46.815Z,10.57
2023-02-09T01:06:14.063Z,9.70
2023-02-09T01:08:40.990Z,11.23
2023-02-09T01:11:15.618Z,9.27
2023-02-09T01:13:47.453Z,9.85
2023-02-09T01:16:18.262Z,10.10
2023-02-09T01:18:45.425Z,12.57
2023-02-09T01:21:19.889Z,13.18
2023-02-09T01:23:48.415Z,11.68
2023-02-09T01:26:17.046Z,12.02
2023-02-09T01:28:44.408Z,11.32
2023-02-09T01:31:39.718Z,10.43
2023-02-09T01:34:06.561Z,11.70
2023-02-09T01:36:33.787Z,11.38
2023-02-09T01:39:03.369Z,10.50
2023-02-09T01:41:31.441Z,11.68
2023-02-09T01:44:26.991Z,12.13
2023-02-09T01:46:53.712Z,9.77
2023-02-09T01:49:23.113Z,10.63
2023-02-09T01:51:59.303Z,9.45
2023-02-09T01:54:39.572Z,8.57
2023-02-09T01:57:31.948Z,9.38
2023-02-09T02:00:09.423Z,7.88
2023-02-09T02:02:37.203Z,10.15
2023-02-09T02:05:06.594Z,8.38
2023-02-09T02:07:52.817Z,13.05
2023-02-09T02:10:19.648Z,8.15
2023-02-09T02:12:46.717Z,11.23
2023-02-09T02:15:13.537Z,11.43
2023-02-09T02:18:02.531Z,10.15
2023-02-09T02:20:49.965Z,12.07
2023-02-09T02:23:28.457Z,5.88
2023-02-09T02:26:43.558Z,7.72
2023-02-09T02:29:21.585Z,9.40
2023-02-09T02:32:33.213Z,7.97
2023-02-09T02:35:21.709Z,8.73
2023-02-09T02:38:26.254Z,9.60
2023-02-09T02:41:21.637Z,12.23
2023-02-09T02:43:55.264Z,11.93
2023-02-09T02:46:34.236Z,10.25
2023-02-09T02:49:27.057Z,9.60
2023-02-09T02:52:00.946Z,7.75
2023-02-09T02:54:32.998Z,10.38
2023-02-09T02:57:06.105Z,6.65
2023-02-09T02:59:46.142Z,8.32
2023-02-09T03:03:00.506Z,10.45
2023-02-09T03:05:28.214Z,8.25
2023-02-09T03:07:54.981Z,9.73
2023-02-09T03:10:29.514Z,7.43
2023-02-09T03:13:25.501Z,8.13
2023-02-09T03:15:59.230Z,11.05
2023-02-09T03:18:48.569Z,6.50
2023-02-09T03:21:25.336Z,7.40
2023-02-09T03:24:04.145Z,8.00
2023-02-09T03:26:45.963Z,9.73
2023-02-09T03:29:14.147Z,10.23
2023-02-09T03:31:41.339Z,8.25
2023-02-09T03:34:09.598Z,12.32
2023-02-09T03:36:38.534Z,9.18
2023-02-09T03:39:05.395Z,9.60
2023-02-09T03:41:32.202Z,8.70
2023-02-09T03:44:17.359Z,9.65
2023-02-09T03:46:44.385Z,7.28
2023-02-09T03:49:14.645Z,10.35
2023-02-09T03:51:42.354Z,9.25
2023-02-09T03:54:09.453Z,9.57
2023-02-09T03:56:37.380Z,11.55
2023-02-09T03:59:05.809Z,12.50
2023-02-09T04:01:35.649Z,12.43
2023-02-09T04:04:03.404Z,11.70
2023-02-09T04:06:32.012Z,11.32
2023-02-09T04:08:59.827Z,10.80
2023-02-09T04:11:27.230Z,13.40
2023-02-09T04:13:54.001Z,10.73
2023-02-09T04:16:20.881Z,12.52
2023-02-09T04:18:47.878Z,13.48
2023-02-09T04:21:15.256Z,15.02
2023-02-09T04:23:42.042Z,12.85
2023-02-09T04:26:08.858Z,15.07
2023-02-09T04:28:35.770Z,14.35
2023-02-09T04:31:02.753Z,12.98
2023-02-09T04:33:29.696Z,12.05
2023-02-09T04:35:57.601Z,10.75
2023-02-09T04:38:24.728Z,10.45
2023-02-09T04:40:54.810Z,12.27
2023-02-09T04:43:22.145Z,10.48
2023-02-09T04:45:49.071Z,21.15
2023-02-09T04:48:20.388Z,13.15
2023-02-09T04:50:47.932Z,12.10
2023-02-09T04:53:15.617Z,12.57
2023-02-09T04:55:45.142Z,10.85
2023-02-09T04:58:33.876Z,11.02
2023-02-09T05:01:04.294Z,11.52
2023-02-09T05:03:31.592Z,7.65
2023-02-09T05:06:04.627Z,10.50
2023-02-09T05:08:31.861Z,8.07
2023-02-09T05:10:59.373Z,9.18
2023-02-09T05:13:26.986Z,11.10
2023-02-09T05:15:54.281Z,13.05
2023-02-09T05:18:22.175Z,10.25
2023-02-09T05:20:49.274Z,9.27
2023-02-09T05:23:17.026Z,12.32
2023-02-09T05:25:45.669Z,13.45
2023-02-09T05:28:12.660Z,9.63
2023-02-09T05:30:39.580Z,9.20
2023-02-09T05:33:06.359Z,12.90
2023-02-09T05:35:33.196Z,12.10
2023-02-09T05:37:59.916Z,12.50
2023-02-09T06:02:25.424Z,10.95
2023-02-09T06:04:52.149Z,12.18
2023-02-09T06:07:18.911Z,10.00
2023-02-09T06:09:45.719Z,10.98
2023-02-09T06:12:12.498Z,18.40
2023-02-09T06:14:39.234Z,19.63
2023-02-09T06:17:06.000Z,19.45
2023-02-09T06:19:32.725Z,16.65
2023-02-09T06:21:59.489Z,13.30
2023-02-09T06:24:26.368Z,11.90
2023-02-09T06:26:53.113Z,17.77
2023-02-09T06:29:19.831Z,14.00
2023-02-09T06:31:46.714Z,13.18
2023-02-09T06:34:13.624Z,14.45
2023-02-09T06:36:40.484Z,16.00
2023-02-09T06:39:10.848Z,16.77
2023-02-09T06:41:37.978Z,18.42
2023-02-09T06:44:05.080Z,14.77
2023-02-09T06:46:32.477Z,14.60
2023-02-09T06:48:59.636Z,19.38
2023-02-09T06:51:26.556Z,13.82
2023-02-09T06:53:53.756Z,17.02
2023-02-09T06:56:20.648Z,15.88
2023-02-09T06:58:47.852Z,15.70
2023-02-09T07:01:15.787Z,16.73
2023-02-09T07:03:43.638Z,13.35
2023-02-09T07:06:14.969Z,12.82
2023-02-09T07:08:50.274Z,13.37
2023-02-09T07:11:19.357Z,13.10
2023-02-09T07:13:46.712Z,16.52
2023-02-09T07:16:14.477Z,19.30
2023-02-09T07:18:41.748Z,14.43
2023-02-09T07:21:18.247Z,15.65
2023-02-09T07:23:45.607Z,15.25
2023-02-09T07:26:17.864Z,19.13
2023-02-09T07:31:14.544Z,15.88
2023-02-09T07:33:41.674Z,20.52
2023-02-09T07:36:11.749Z,18.05
2023-02-09T07:38:40.050Z,15.10
2023-02-09T07:41:09.806Z,20.70
2023-02-09T07:43:36.598Z,16.88
2023-02-09T07:46:07.166Z,18.25
2023-02-09T07:48:36.633Z,18.98
2023-02-09T07:51:04.516Z,23.55
2023-02-09T07:53:32.160Z,21.08
2023-02-09T07:55:59.107Z,17.27
2023-02-09T07:58:25.846Z,22.15
2023-02-09T08:00:52.610Z,23.77
2023-02-09T08:03:22.972Z,21.83
2023-02-09T08:06:02.006Z,24.85
2023-02-09T08:08:54.677Z,28.60
2023-02-09T08:13:57.517Z,27.45
2023-02-09T08:16:29.958Z,23.10
2023-02-09T08:19:06.341Z,23.58
2023-02-09T08:21:39.012Z,24.35
2023-02-09T08:24:06.751Z,22.63
2023-02-09T08:26:34.665Z,21.95
2023-02-09T08:29:01.891Z,19.35
2023-02-09T08:31:28.710Z,22.50
2023-02-09T08:33:55.518Z,18.48
2023-02-09T08:36:22.302Z,21.95
2023-02-09T08:38:49.122Z,19.75
2023-02-09T08:41:17.431Z,21.00
2023-02-09T08:43:49.385Z,20.40
2023-02-09T08:46:16.687Z,17.92
2023-02-09T08:48:45.534Z,20.52
2023-02-09T08:51:15.279Z,20.67
2023-02-09T08:53:43.278Z,20.65
2023-02-09T08:56:10.278Z,23.02
2023-02-09T08:58:37.198Z,23.92
2023-02-09T09:01:05.279Z,19.90
2023-02-09T09:03:32.789Z,26.17
2023-02-09T09:06:06.926Z,20.35
2023-02-09T09:08:36.010Z,18.40
2023-02-09T09:11:03.164Z,19.70
2023-02-09T09:13:29.984Z,20.58
2023-02-09T09:15:56.736Z,18.92
2023-02-09T09:18:25.485Z,15.43
2023-02-09T09:20:53.123Z,16.92
2023-02-09T09:23:21.040Z,17.23
2023-02-09T09:25:48.282Z,14.27
2023-02-09T09:28:15.792Z,16.52
2023-02-09T09:30:42.654Z,11.93
2023-02-09T09:33:14.569Z,12.98
2023-02-09T09:35:41.743Z,14.18
2023-02-09T09:38:08.456Z,11.02
2023-02-09T09:40:39.308Z,11.15
2023-02-09T09:43:33.868Z,14.23
2023-02-09T09:46:02.686Z,12.93
2023-02-09T09:48:51.594Z,13.38
2023-02-09T09:51:46.614Z,11.30
2023-02-09T09:54:21.279Z,15.45
2023-02-09T09:56:48.650Z,15.18
2023-02-09T09:59:20.474Z,13.68
2023-02-09T10:01:50.183Z,14.77
2023-02-09T10:04:20.692Z,12.60
2023-02-09T10:06:58.159Z,12.43
2023-02-09T10:09:42.153Z,12.10
2023-02-09T10:12:29.769Z,13.98
2023-02-09T10:14:56.494Z,11.85
2023-02-09T10:17:23.239Z,12.07
2023-02-09T10:20:05.950Z,11.80
2023-02-09T10:22:32.724Z,11.43
2023-02-09T10:24:59.798Z,16.80
2023-02-09T10:27:30.894Z,11.43
2023-02-09T10:30:26.556Z,15.13
2023-02-09T10:32:53.402Z,10.60
2023-02-09T10:35:28.848Z,11.77
2023-02-09T10:38:00.963Z,20.27
2023-02-09T10:43:04.770Z,12.73
2023-02-09T10:45:44.816Z,15.20
2023-02-09T10:48:11.629Z,17.45
2023-02-09T10:50:56.472Z,13.48
2023-02-09T10:53:33.115Z,15.32
2023-02-09T10:56:23.703Z,14.88
2023-02-09T10:59:12.775Z,12.45
2023-02-09T11:01:42.595Z,11.55
2023-02-09T11:04:40.642Z,13.07
2023-02-09T11:07:18.111Z,13.43
2023-02-09T11:09:51.709Z,16.30
2023-02-09T11:12:22.541Z,11.07
2023-02-09T11:14:49.669Z,12.90
2023-02-09T11:17:28.065Z,13.32
2023-02-09T11:20:32.067Z,11.18
2023-02-09T11:23:41.938Z,12.23
2023-02-09T11:26:39.342Z,11.30
2023-02-09T11:29:30.490Z,12.82
2023-02-09T11:32:43.814Z,11.70
2023-02-09T11:35:16.505Z,16.63
2023-02-09T11:38:13.917Z,14.05
2023-02-09T11:40:50.416Z,10.80
2023-02-09T11:43:38.244Z,13.02
2023-02-09T11:46:17.873Z,14.80
2023-02-09T11:48:55.726Z,13.57
2023-02-09T11:51:26.517Z,12.13
2023-02-09T11:54:18.837Z,13.65
2023-02-09T11:56:53.168Z,11.70
2023-02-09T11:59:33.830Z,10.60
2023-02-09T12:02:41.598Z,12.60
2023-02-09T12:05:14.303Z,12.27
2023-02-09T12:08:07.246Z,10.90
2023-02-09T12:10:41.458Z,13.90
2023-02-09T12:13:27.898Z,12.80
2023-02-09T12:16:02.595Z,11.48
2023-02-09T12:18:33.546Z,13.32
2023-02-09T12:21:07.325Z,13.07
2023-02-09T12:23:36.407Z,11.65
2023-02-09T12:26:12.151Z,10.95
2023-02-09T12:28:47.042Z,10.70
2023-02-09T12:31:26.080Z,12.07
2023-02-09T12:33:58.913Z,12.25
2023-02-09T12:36:31.350Z,13.50
2023-02-09T12:39:16.089Z,14.55
2023-02-09T12:41:42.743Z,12.75
2023-02-09T12:44:09.374Z,14.75
2023-02-09T12:46:45.345Z,14.02
2023-02-09T12:49:12.117Z,12.48
2023-02-09T12:52:16.528Z,12.10
2023-02-09T12:54:56.670Z,14.35
2023-02-09T12:57:23.797Z,12.10
2023-02-09T12:59:50.878Z,13.38
2023-02-09T13:02:56.137Z,15.70
2023-02-09T13:05:28.207Z,15.85
2023-02-09T13:08:31.801Z,14.38
2023-02-09T13:11:20.311Z,15.35
2023-02-09T13:13:56.271Z,12.23
2023-02-09T13:16:30.515Z,16.00
2023-02-09T13:19:23.076Z,13.70
2023-02-09T13:22:15.890Z,16.10
2023-02-09T13:25:01.557Z,17.67
2023-02-09T13:27:29.831Z,13.30
2023-02-09T13:29:59.158Z,11.40
2023-02-09T13:33:08.616Z,13.93
2023-02-09T13:35:58.211Z,14.02
2023-02-09T13:38:28.377Z,13.55
2023-02-09T13:40:55.993Z,14.65
2023-02-09T13:43:32.636Z,14.88
2023-02-09T13:46:01.937Z,12.65
2023-02-09T13:48:39.302Z,14.48
2023-02-09T13:51:20.874Z,18.80
2023-02-09T13:54:01.134Z,16.45
2023-02-09T13:56:29.930Z,12.75
2023-02-09T13:58:57.190Z,13.02
2023-02-09T14:01:34.288Z,15.85
2023-02-09T14:04:19.297Z,10.68
2023-02-09T14:07:03.972Z,14.23
2023-02-09T14:09:48.392Z,13.13
2023-02-09T14:12:55.758Z,14.27
2023-02-09T14:15:55.048Z,12.63
2023-02-09T14:19:01.898Z,12.90
2023-02-09T14:21:44.667Z,13.15
2023-02-09T14:24:12.729Z,12.70
2023-02-09T14:26:54.537Z,16.80
2023-02-09T14:29:28.528Z,13.98
2023-02-09T14:31:58.088Z,14.95
2023-02-09T14:34:36.783Z,15.52
2023-02-09T14:37:15.454Z,16.38
2023-02-09T14:40:06.051Z,15.23
2023-02-09T14:42:39.131Z,34.00
2023-02-09T14:45:15.061Z,14.55
2023-02-09T14:47:44.463Z,14.55
2023-02-09T14:50:18.463Z,14.30
2023-02-09T14:52:48.224Z,18.52
2023-02-09T14:55:28.265Z,19.85
2023-02-09T14:57:55.123Z,20.02
2023-02-09T15:00:28.111Z,18.27
2023-02-09T15:02:55.897Z,18.80
2023-02-09T15:05:24.122Z,21.13
2023-02-09T15:07:56.153Z,21.15
2023-02-09T15:10:38.603Z,22.48
2023-02-09T15:13:05.498Z,24.00
2023-02-09T15:15:37.421Z,17.77
2023-02-09T15:18:04.435Z,21.33
2023-02-09T15:20:32.312Z,21.05
2023-02-09T15:23:00.708Z,23.52
2023-02-09T15:25:27.881Z,19.77
2023-02-09T15:28:00.445Z,18.77
2023-02-09T15:30:34.092Z,15.63
2023-02-09T15:33:01.709Z,15.65
2023-02-09T15:35:29.824Z,16.73
2023-02-09T15:37:59.746Z,15.65
2023-02-09T15:40:56.591Z,13.93
2023-02-09T15:43:42.748Z,13.70
2023-02-09T15:46:28.407Z,14.77
2023-02-09T15:48:55.192Z,15.40
2023-02-09T15:51:25.187Z,15.35
2023-02-09T15:53:55.275Z,15.95
2023-02-09T15:56:22.268Z,15.75
2023-02-09T15:58:54.198Z,23.05
2023-02-09T16:01:21.195Z,15.00
2023-02-09T16:03:48.371Z,12.57
2023-02-09T16:06:24.811Z,16.52
2023-02-09T16:08:53.716Z,17.77
2023-02-09T16:11:32.993Z,15.63
2023-02-09T16:14:01.424Z,14.85
2023-02-09T16:16:29.114Z,13.52
2023-02-09T16:19:08.108Z,17.02
2023-02-09T16:21:34.955Z,17.15
2023-02-09T16:24:04.524Z,16.08
2023-02-09T16:26:33.397Z,16.27
2023-02-09T16:29:00.107Z,16.45
2023-02-09T16:31:27.085Z,15.57
2023-02-09T16:33:53.878Z,17.55
2023-02-09T16:36:24.788Z,15.00
2023-02-09T16:38:51.542Z,20.40
2023-02-09T16:41:38.386Z,15.70
2023-02-09T16:44:17.796Z,16.00
2023-02-09T16:46:47.685Z,17.08
2023-02-09T16:49:43.309Z,16.65
2023-02-09T16:52:21.751Z,15.70
2023-02-09T16:54:52.742Z,14.20
2023-02-09T16:57:23.197Z,16.15
2023-02-09T16:59:51.046Z,16.67
2023-02-09T17:02:50.428Z,16.83
2023-02-09T17:05:27.064Z,15.68
2023-02-09T17:08:04.061Z,15.00
2023-02-09T17:10:34.102Z,17.30
2023-02-09T17:13:02.021Z,16.38
2023-02-09T17:15:32.119Z,16.77
2023-02-09T17:18:04.601Z,14.70
2023-02-09T17:23:23.551Z,13.98
2023-02-09T17:25:54.902Z,14.95
2023-02-09T17:28:24.335Z,15.53
2023-02-09T17:30:52.328Z,13.60
2023-02-09T17:33:25.966Z,11.10
2023-02-09T17:36:23.640Z,13.43
2023-02-09T17:38:41.688Z,16.92
2023-02-09T17:41:16.722Z,15.05
2023-02-09T17:43:43.764Z,21.55
2023-02-09T17:46:16.253Z,19.63
2023-02-09T17:48:43.187Z,22.83
2023-02-09T17:51:21.235Z,15.93
2023-02-09T17:53:48.754Z,17.35
2023-02-09T17:56:16.778Z,22.10
2023-02-09T17:58:44.435Z,20.02
2023-02-09T18:01:27.579Z,20.48
2023-02-09T18:04:01.457Z,19.13
2023-02-09T18:06:42.009Z,24.40
2023-02-09T18:09:12.440Z,19.15
2023-02-09T18:12:07.742Z,20.23
2023-02-09T18:14:34.693Z,24.10
2023-02-09T18:17:02.085Z,25.60
2023-02-09T18:19:29.065Z,23.38
2023-02-09T18:21:59.329Z,21.65
2023-02-09T18:24:30.547Z,24.17
2023-02-09T18:26:57.742Z,22.65
2023-02-09T18:29:29.067Z,21.55
2023-02-09T18:32:01.088Z,22.95
2023-02-09T18:34:29.111Z,21.58
2023-02-09T18:36:57.029Z,22.05
2023-02-09T18:39:23.893Z,23.08
2023-02-09T18:41:56.262Z,27.67
2023-02-09T18:44:31.147Z,27.33
2023-02-09T18:47:02.531Z,20.75
2023-02-09T18:49:29.984Z,20.80
2023-02-09T18:51:58.634Z,23.42
2023-02-09T18:54:27.683Z,26.85
2023-02-09T18:56:55.369Z,22.35
2023-02-09T18:59:22.387Z,23.17
2023-02-09T19:01:50.645Z,24.92
2023-02-09T19:04:17.428Z,24.33
2023-02-09T19:06:44.133Z,24.42
2023-02-09T19:09:10.911Z,23.33
2023-02-09T19:11:37.666Z,27.25
2023-02-09T19:14:22.729Z,32.50
2023-02-09T19:16:49.547Z,24.35
2023-02-09T19:19:16.351Z,23.02
2023-02-09T19:21:43.101Z,27.23
2023-02-09T19:24:09.952Z,22.02
2023-02-09T19:26:36.744Z,26.90
2023-02-09T19:29:03.548Z,26.92
2023-02-09T19:31:30.600Z,24.30
2023-02-09T19:33:57.901Z,28.35
2023-02-09T19:36:27.828Z,23.98
2023-02-09T19:38:56.550Z,25.60
2023-02-09T19:41:25.396Z,25.40
2023-02-09T19:43:57.147Z,27.83
2023-02-09T19:46:25.261Z,28.25
2023-02-09T19:48:53.742Z,26.90
2023-02-09T19:51:22.065Z,27.38
2023-02-09T19:53:49.463Z,30.25
2023-02-09T19:56:19.361Z,29.17
2023-02-09T19:58:47.179Z,32.35
2023-02-09T20:01:13.995Z,29.50
2023-02-09T20:03:40.818Z,28.52
2023-02-09T20:06:11.155Z,33.10
2023-02-09T20:08:39.333Z,31.65
2023-02-09T20:11:13.106Z,30.98
2023-02-09T20:13:39.877Z,32.33
2023-02-09T20:16:21.490Z,35.85
2023-02-09T20:18:48.770Z,32.47
2023-02-09T20:21:17.579Z,32.80
2023-02-09T20:23:45.815Z,29.98
2023-02-09T20:26:22.610Z,30.83
2023-02-09T20:28:49.718Z,34.55
2023-02-09T20:31:23.977Z,32.33
2023-02-09T20:33:51.401Z,32.78
2023-02-09T20:36:18.598Z,30.48
2023-02-09T20:38:47.227Z,33.33
2023-02-09T20:41:17.989Z,32.78
2023-02-09T20:44:03.703Z,30.42
2023-02-09T20:46:55.962Z,36.47
2023-02-09T20:49:31.051Z,32.38
2023-02-09T20:51:58.465Z,33.85
2023-02-09T20:54:25.732Z,33.03
2023-02-09T20:56:52.522Z,42.28
2023-02-09T20:59:19.315Z,38.08
2023-02-09T21:01:46.143Z,37.10
2023-02-09T21:04:13.072Z,34.22
2023-02-09T21:06:39.873Z,34.92
2023-02-09T21:09:09.104Z,41.78
2023-02-09T21:11:35.963Z,34.50
2023-02-09T21:14:03.196Z,33.55
2023-02-09T21:16:31.380Z,31.52
2023-02-09T21:18:59.272Z,31.63
2023-02-09T21:21:27.386Z,35.70
2023-02-09T21:23:54.561Z,32.00
2023-02-09T21:26:24.021Z,33.55
2023-02-09T21:28:56.042Z,39.33
2023-02-09T21:31:27.623Z,34.33
2023-02-09T21:33:54.636Z,33.35
2023-02-09T21:36:21.634Z,38.10
2023-02-09T21:38:48.665Z,36.17
2023-02-09T21:41:40.837Z,35.25
2023-02-09T21:44:15.396Z,33.13
2023-02-09T21:46:42.412Z,39.80
2023-02-09T21:49:12.991Z,29.70
2023-02-09T21:51:41.865Z,48.15
2023-02-09T21:54:16.734Z,37.80
2023-02-09T21:56:44.362Z,40.90
2023-02-09T21:59:11.322Z,33.03
2023-02-09T22:01:38.284Z,32.03
2023-02-09T22:04:05.330Z,36.45
2023-02-09T22:06:32.234Z,38.05
2023-02-09T22:09:02.576Z,33.83
2023-02-09T22:11:29.779Z,33.95
2023-02-09T22:13:56.637Z,37.17
2023-02-09T22:16:24.348Z,37.15
2023-02-09T22:18:51.882Z,38.75
2023-02-09T22:21:19.777Z,40.65
2023-02-09T22:23:46.759Z,39.08
2023-02-09T22:26:14.516Z,36.97
2023-02-09T22:28:42.515Z,37.65
2023-02-09T22:31:18.407Z,40.58
2023-02-09T22:33:45.494Z,38.78
2023-02-09T22:36:15.835Z,41.47
2023-02-09T22:38:44.681Z,38.38
2023-02-09T22:41:22.456Z,37.90
2023-02-09T22:43:53.885Z,41.50
2023-02-09T22:46:23.396Z,37.88
2023-02-09T22:48:59.257Z,41.80
2023-02-09T22:51:29.893Z,33.55
2023-02-09T22:53:58.209Z,34.78
2023-02-09T22:56:26.738Z,42.92
2023-02-09T22:58:58.823Z,37.17
2023-02-09T23:01:26.709Z,44.25
2023-02-09T23:03:54.517Z,42.13
2023-02-09T23:06:24.520Z,43.97
2023-02-09T23:08:58.259Z,44.15
2023-02-09T23:11:25.637Z,42.45
2023-02-09T23:14:03.851Z,46.85
2023-02-09T23:16:36.070Z,43.08
2023-02-09T23:19:06.128Z,58.42
2023-02-09T23:21:37.475Z,46.28
2023-02-09T23:24:05.141Z,41.63
2023-02-09T23:26:32.024Z,41.80
2023-02-09T23:29:02.046Z,38.22
2023-02-09T23:31:29.753Z,44.70
2023-02-09T23:33:57.214Z,31.52
2023-02-09T23:36:28.210Z,38.95
2023-02-09T23:38:58.607Z,39.58
2023-02-09T23:41:25.639Z,43.63
2023-02-09T23:43:52.998Z,40.85
2023-02-09T23:46:23.895Z,41.20
2023-02-09T23:48:54.936Z,40.72
2023-02-09T23:51:32.152Z,39.75
2023-02-09T23:54:01.785Z,40.72
2023-02-09T23:56:31.740Z,41.72
2023-02-09T23:58:58.524Z,47.35
